sensor_id;sensor_type;location;lat;lon;timestamp;pressure;altitude;pressure_sealevel;temperature;humidity
38812;BME280;24553;51.640;-0.752;2023-08-08T00:01:36;100948.97;;;16.86;100.00
38812;BME280;24553;51.640;-0.752;2023-08-08T00:04:01;100939.41;;;16.90;100.00
38812;BME280;24553;51.640;-0.752;2023-08-08T00:06:27;100940.03;;;16.92;100.00
38812;BME280;24553;51.640;-0.752;2023-08-08T00:08:52;100935.69;;;16.91;100.00
38812;BME280;24553;51.640;-0.752;2023-08-08T00:11:17;100938.25;;;16.86;100.00
38812;BME280;24553;51.640;-0.752;2023-08-08T00:13:43;100932.44;;;16.89;100.00
38812;BME280;24553;51.640;-0.752;2023-08-08T00:16:08;100923.81;;;16.87;100.00
38812;BME280;24553;51.640;-0.752;2023-08-08T00:18:33;100930.25;;;16.79;100.00
38812;BME280;24553;51.640;-0.752;2023-08-08T00:20:59;100927.03;;;16.70;100.00
38812;BME280;24553;51.640;-0.752;2023-08-08T00:23:24;100918.28;;;16.56;100.00
38812;BME280;24553;51.640;-0.752;2023-08-08T00:25:49;100912.13;;;16.56;100.00
38812;BME280;24553;51.640;-0.752;2023-08-08T00:28:16;100919.22;;;16.44;100.00
38812;BME280;24553;51.640;-0.752;2023-08-08T00:30:42;100910.38;;;16.43;100.00
38812;BME280;24553;51.640;-0.752;2023-08-08T00:33:08;100915.56;;;16.38;100.00
38812;BME280;24553;51.640;-0.752;2023-08-08T00:35:33;100909.44;;;16.31;100.00
38812;BME280;24553;51.640;-0.752;2023-08-08T00:37:58;100918.38;;;16.18;100.00
38812;BME280;24553;51.640;-0.752;2023-08-08T00:40:24;100923.56;;;16.13;100.00
38812;BME280;24553;51.640;-0.752;2023-08-08T00:42:49;100924.44;;;16.07;100.00
38812;BME280;24553;51.640;-0.752;2023-08-08T00:45:14;100925.34;;;15.94;100.00
38812;BME280;24553;51.640;-0.752;2023-08-08T00:47:40;100923.22;;;16.03;100.00
38812;BME280;24553;51.640;-0.752;2023-08-08T00:50:05;100919.19;;;15.94;100.00
38812;BME280;24553;51.640;-0.752;2023-08-08T00:52:31;100913.50;;;15.83;100.00
38812;BME280;24553;51.640;-0.752;2023-08-08T00:54:57;100913.88;;;15.87;100.00
38812;BME280;24553;51.640;-0.752;2023-08-08T00:57:23;100910.66;;;15.78;100.00
38812;BME280;24553;51.640;-0.752;2023-08-08T00:59:48;100906.09;;;15.85;100.00
38812;BME280;24553;51.640;-0.752;2023-08-08T01:02:14;100900.50;;;15.87;100.00
38812;BME280;24553;51.640;-0.752;2023-08-08T01:04:39;100895.63;;;15.77;100.00
38812;BME280;24553;51.640;-0.752;2023-08-08T01:09:57;100897.97;;;15.54;100.00
38812;BME280;24553;51.640;-0.752;2023-08-08T01:12:26;100902.03;;;15.24;100.00
38812;BME280;24553;51.640;-0.752;2023-08-08T01:14:52;100891.03;;;15.01;100.00
38812;BME280;24553;51.640;-0.752;2023-08-08T01:17:19;100889.00;;;14.83;100.00
38812;BME280;24553;51.640;-0.752;2023-08-08T01:19:46;100894.16;;;14.71;100.00
38812;BME280;24553;51.640;-0.752;2023-08-08T01:22:22;100900.16;;;14.53;100.00
38812;BME280;24553;51.640;-0.752;2023-08-08T01:24:49;100893.13;;;14.66;100.00
38812;BME280;24553;51.640;-0.752;2023-08-08T01:27:15;100890.91;;;14.69;100.00
38812;BME280;24553;51.640;-0.752;2023-08-08T01:29:41;100897.25;;;14.75;100.00
38812;BME280;24553;51.640;-0.752;2023-08-08T01:32:07;100895.34;;;14.89;100.00
38812;BME280;24553;51.640;-0.752;2023-08-08T01:34:34;100896.81;;;14.85;100.00
38812;BME280;24553;51.640;-0.752;2023-08-08T01:37:17;100899.03;;;14.94;100.00
38812;BME280;24553;51.640;-0.752;2023-08-08T01:39:43;100886.72;;;15.00;100.00
38812;BME280;24553;51.640;-0.752;2023-08-08T01:42:10;100884.88;;;14.94;100.00
38812;BME280;24553;51.640;-0.752;2023-08-08T01:44:38;100887.72;;;14.99;100.00
38812;BME280;24553;51.640;-0.752;2023-08-08T01:47:05;100873.56;;;15.05;100.00
38812;BME280;24553;51.640;-0.752;2023-08-08T01:49:30;100881.16;;;15.01;100.00
38812;BME280;24553;51.640;-0.752;2023-08-08T01:51:55;100893.44;;;15.09;100.00
38812;BME280;24553;51.640;-0.752;2023-08-08T01:54:21;100891.78;;;15.15;100.00
38812;BME280;24553;51.640;-0.752;2023-08-08T01:56:46;100889.72;;;15.17;100.00
38812;BME280;24553;51.640;-0.752;2023-08-08T01:59:11;100882.09;;;15.27;100.00
38812;BME280;24553;51.640;-0.752;2023-08-08T02:01:37;100874.88;;;15.34;100.00
38812;BME280;24553;51.640;-0.752;2023-08-08T02:04:02;100886.00;;;15.31;100.00
38812;BME280;24553;51.640;-0.752;2023-08-08T02:06:27;100883.91;;;15.33;100.00
38812;BME280;24553;51.640;-0.752;2023-08-08T02:08:53;100876.94;;;15.32;100.00
38812;BME280;24553;51.640;-0.752;2023-08-08T02:11:18;100867.28;;;15.31;100.00
38812;BME280;24553;51.640;-0.752;2023-08-08T02:13:43;100872.19;;;15.34;100.00
38812;BME280;24553;51.640;-0.752;2023-08-08T02:16:09;100876.94;;;15.32;100.00
38812;BME280;24553;51.640;-0.752;2023-08-08T02:18:34;100873.88;;;15.29;100.00
38812;BME280;24553;51.640;-0.752;2023-08-08T02:21:01;100862.78;;;15.25;100.00
38812;BME280;24553;51.640;-0.752;2023-08-08T02:23:26;100871.84;;;15.17;100.00
38812;BME280;24553;51.640;-0.752;2023-08-08T02:25:51;100873.94;;;15.09;100.00
38812;BME280;24553;51.640;-0.752;2023-08-08T02:28:17;100870.91;;;14.98;100.00
38812;BME280;24553;51.640;-0.752;2023-08-08T02:30:42;100880.97;;;14.96;100.00
38812;BME280;24553;51.640;-0.752;2023-08-08T02:33:07;100876.84;;;15.00;100.00
38812;BME280;24553;51.640;-0.752;2023-08-08T02:35:33;100873.75;;;15.03;100.00
38812;BME280;24553;51.640;-0.752;2023-08-08T02:37:58;100869.03;;;15.05;100.00
38812;BME280;24553;51.640;-0.752;2023-08-08T02:40:23;100859.59;;;15.03;100.00
38812;BME280;24553;51.640;-0.752;2023-08-08T02:42:49;100871.47;;;15.07;100.00
38812;BME280;24553;51.640;-0.752;2023-08-08T02:45:15;100877.84;;;15.06;100.00
38812;BME280;24553;51.640;-0.752;2023-08-08T02:47:40;100877.63;;;15.14;100.00
38812;BME280;24553;51.640;-0.752;2023-08-08T02:50:06;100873.75;;;15.10;100.00
38812;BME280;24553;51.640;-0.752;2023-08-08T02:52:31;100864.44;;;15.19;100.00
38812;BME280;24553;51.640;-0.752;2023-08-08T02:54:57;100865.00;;;15.28;100.00
38812;BME280;24553;51.640;-0.752;2023-08-08T02:57:22;100864.00;;;15.29;100.00
38812;BME280;24553;51.640;-0.752;2023-08-08T02:59:47;100866.25;;;15.32;100.00
38812;BME280;24553;51.640;-0.752;2023-08-08T03:02:13;100852.88;;;15.39;100.00
38812;BME280;24553;51.640;-0.752;2023-08-08T03:04:38;100865.25;;;15.26;100.00
38812;BME280;24553;51.640;-0.752;2023-08-08T03:07:04;100873.69;;;15.23;100.00
38812;BME280;24553;51.640;-0.752;2023-08-08T03:09:30;100872.88;;;15.16;100.00
38812;BME280;24553;51.640;-0.752;2023-08-08T03:11:55;100879.91;;;15.11;100.00
38812;BME280;24553;51.640;-0.752;2023-08-08T03:14:20;100871.28;;;15.02;100.00
38812;BME280;24553;51.640;-0.752;2023-08-08T03:16:46;100872.16;;;14.89;100.00
38812;BME280;24553;51.640;-0.752;2023-08-08T03:19:11;100879.97;;;14.84;100.00
38812;BME280;24553;51.640;-0.752;2023-08-08T03:21:36;100881.41;;;14.87;100.00
38812;BME280;24553;51.640;-0.752;2023-08-08T03:24:02;100878.13;;;14.78;100.00
38812;BME280;24553;51.640;-0.752;2023-08-08T03:26:27;100870.34;;;14.70;100.00
38812;BME280;24553;51.640;-0.752;2023-08-08T03:28:53;100880.03;;;14.57;100.00
38812;BME280;24553;51.640;-0.752;2023-08-08T03:31:19;100884.75;;;14.55;100.00
38812;BME280;24553;51.640;-0.752;2023-08-08T03:33:44;100882.88;;;14.49;100.00
38812;BME280;24553;51.640;-0.752;2023-08-08T03:36:10;100877.53;;;14.49;100.00
38812;BME280;24553;51.640;-0.752;2023-08-08T03:38:35;100867.06;;;14.48;100.00
38812;BME280;24553;51.640;-0.752;2023-08-08T03:41:03;100880.22;;;14.36;100.00
38812;BME280;24553;51.640;-0.752;2023-08-08T03:43:28;100886.78;;;14.27;100.00
38812;BME280;24553;51.640;-0.752;2023-08-08T03:45:53;100888.63;;;14.19;100.00
38812;BME280;24553;51.640;-0.752;2023-08-08T03:48:19;100880.63;;;14.19;100.00
38812;BME280;24553;51.640;-0.752;2023-08-08T03:50:44;100884.72;;;14.22;100.00
38812;BME280;24553;51.640;-0.752;2023-08-08T03:53:11;100881.47;;;14.20;100.00
38812;BME280;24553;51.640;-0.752;2023-08-08T03:55:37;100881.03;;;14.16;100.00
38812;BME280;24553;51.640;-0.752;2023-08-08T03:58:03;100884.34;;;14.25;100.00
38812;BME280;24553;51.640;-0.752;2023-08-08T04:00:28;100884.72;;;14.42;100.00
38812;BME280;24553;51.640;-0.752;2023-08-08T04:02:53;100880.63;;;14.26;100.00
38812;BME280;24553;51.640;-0.752;2023-08-08T04:05:19;100879.00;;;14.38;100.00
38812;BME280;24553;51.640;-0.752;2023-08-08T04:07:44;100878.38;;;14.43;100.00
38812;BME280;24553;51.640;-0.752;2023-08-08T04:10:10;100877.13;;;14.39;100.00
38812;BME280;24553;51.640;-0.752;2023-08-08T04:12:35;100867.72;;;14.23;100.00
38812;BME280;24553;51.640;-0.752;2023-08-08T04:15:01;100871.38;;;14.09;100.00
38812;BME280;24553;51.640;-0.752;2023-08-08T04:17:26;100870.19;;;14.05;100.00
38812;BME280;24553;51.640;-0.752;2023-08-08T04:19:51;100863.81;;;14.06;100.00
38812;BME280;24553;51.640;-0.752;2023-08-08T04:22:17;100872.63;;;14.00;100.00
38812;BME280;24553;51.640;-0.752;2023-08-08T04:24:43;100867.69;;;14.03;100.00
38812;BME280;24553;51.640;-0.752;2023-08-08T04:27:08;100864.81;;;14.11;100.00
38812;BME280;24553;51.640;-0.752;2023-08-08T04:29:34;100868.53;;;14.10;100.00
38812;BME280;24553;51.640;-0.752;2023-08-08T04:31:59;100875.88;;;13.75;100.00
38812;BME280;24553;51.640;-0.752;2023-08-08T04:34:24;100886.75;;;13.87;100.00
38812;BME280;24553;51.640;-0.752;2023-08-08T04:36:50;100876.09;;;13.87;100.00
38812;BME280;24553;51.640;-0.752;2023-08-08T04:39:15;100876.50;;;13.90;100.00
38812;BME280;24553;51.640;-0.752;2023-08-08T04:41:40;100877.13;;;13.92;100.00
38812;BME280;24553;51.640;-0.752;2023-08-08T04:44:06;100875.31;;;14.13;100.00
38812;BME280;24553;51.640;-0.752;2023-08-08T04:46:31;100874.06;;;14.22;100.00
38812;BME280;24553;51.640;-0.752;2023-08-08T04:48:56;100875.09;;;14.34;100.00
38812;BME280;24553;51.640;-0.752;2023-08-08T04:51:22;100857.25;;;14.48;100.00
38812;BME280;24553;51.640;-0.752;2023-08-08T04:53:47;100862.16;;;14.58;100.00
38812;BME280;24553;51.640;-0.752;2023-08-08T04:56:12;100860.72;;;14.62;100.00
38812;BME280;24553;51.640;-0.752;2023-08-08T04:58:38;100856.63;;;14.59;100.00
38812;BME280;24553;51.640;-0.752;2023-08-08T05:01:03;100864.22;;;14.63;100.00
38812;BME280;24553;51.640;-0.752;2023-08-08T05:03:28;100860.03;;;14.87;100.00
38812;BME280;24553;51.640;-0.752;2023-08-08T05:05:54;100861.03;;;14.99;100.00
38812;BME280;24553;51.640;-0.752;2023-08-08T05:08:19;100869.47;;;15.02;100.00
38812;BME280;24553;51.640;-0.752;2023-08-08T05:10:46;100872.31;;;15.01;100.00
38812;BME280;24553;51.640;-0.752;2023-08-08T05:13:12;100870.47;;;15.01;100.00
38812;BME280;24553;51.640;-0.752;2023-08-08T05:15:38;100862.50;;;14.95;100.00
38812;BME280;24553;51.640;-0.752;2023-08-08T05:18:03;100863.31;;;14.89;100.00
38812;BME280;24553;51.640;-0.752;2023-08-08T05:20:29;100861.69;;;14.81;100.00
38812;BME280;24553;51.640;-0.752;2023-08-08T05:22:54;100855.16;;;14.77;100.00
38812;BME280;24553;51.640;-0.752;2023-08-08T05:25:19;100851.44;;;14.78;100.00
38812;BME280;24553;51.640;-0.752;2023-08-08T05:27:44;100852.28;;;14.72;100.00
38812;BME280;24553;51.640;-0.752;2023-08-08T05:30:10;100843.25;;;14.73;100.00
38812;BME280;24553;51.640;-0.752;2023-08-08T05:32:35;100853.91;;;14.79;100.00
38812;BME280;24553;51.640;-0.752;2023-08-08T05:35:01;100848.97;;;14.90;100.00
38812;BME280;24553;51.640;-0.752;2023-08-08T05:37:29;100846.44;;;15.01;100.00
38812;BME280;24553;51.640;-0.752;2023-08-08T05:39:54;100838.13;;;15.23;100.00
38812;BME280;24553;51.640;-0.752;2023-08-08T05:42:19;100829.03;;;15.37;100.00
38812;BME280;24553;51.640;-0.752;2023-08-08T05:44:45;100828.50;;;15.54;100.00
38812;BME280;24553;51.640;-0.752;2023-08-08T05:47:10;100830.47;;;15.72;100.00
38812;BME280;24553;51.640;-0.752;2023-08-08T05:49:36;100825.69;;;15.80;100.00
38812;BME280;24553;51.640;-0.752;2023-08-08T05:52:02;100825.63;;;15.87;100.00
38812;BME280;24553;51.640;-0.752;2023-08-08T05:54:27;100825.75;;;15.99;100.00
38812;BME280;24553;51.640;-0.752;2023-08-08T05:56:53;100829.38;;;16.11;100.00
38812;BME280;24553;51.640;-0.752;2023-08-08T05:59:18;100828.84;;;16.21;100.00
38812;BME280;24553;51.640;-0.752;2023-08-08T06:01:44;100826.28;;;16.32;100.00
38812;BME280;24553;51.640;-0.752;2023-08-08T06:04:09;100833.66;;;16.37;100.00
38812;BME280;24553;51.640;-0.752;2023-08-08T06:06:35;100833.72;;;16.49;100.00
38812;BME280;24553;51.640;-0.752;2023-08-08T06:09:00;100840.66;;;16.56;100.00
38812;BME280;24553;51.640;-0.752;2023-08-08T06:11:26;100849.50;;;16.57;100.00
38812;BME280;24553;51.640;-0.752;2023-08-08T06:13:51;100847.13;;;16.49;100.00
38812;BME280;24553;51.640;-0.752;2023-08-08T06:16:16;100842.53;;;16.56;100.00
38812;BME280;24553;51.640;-0.752;2023-08-08T06:18:43;100848.78;;;16.50;100.00
38812;BME280;24553;51.640;-0.752;2023-08-08T06:21:09;100849.34;;;16.52;100.00
38812;BME280;24553;51.640;-0.752;2023-08-08T06:23:34;100841.16;;;16.47;100.00
38812;BME280;24553;51.640;-0.752;2023-08-08T06:25:59;100841.72;;;16.55;100.00
38812;BME280;24553;51.640;-0.752;2023-08-08T06:28:25;100838.13;;;16.62;100.00
38812;BME280;24553;51.640;-0.752;2023-08-08T06:30:50;100846.78;;;16.64;100.00
38812;BME280;24553;51.640;-0.752;2023-08-08T06:33:15;100841.94;;;16.72;100.00
38812;BME280;24553;51.640;-0.752;2023-08-08T06:35:41;100841.44;;;16.82;100.00
38812;BME280;24553;51.640;-0.752;2023-08-08T06:38:07;100844.34;;;16.99;100.00
38812;BME280;24553;51.640;-0.752;2023-08-08T06:40:34;100834.66;;;16.98;100.00
38812;BME280;24553;51.640;-0.752;2023-08-08T06:42:59;100839.72;;;17.06;100.00
38812;BME280;24553;51.640;-0.752;2023-08-08T06:45:24;100836.16;;;17.12;100.00
38812;BME280;24553;51.640;-0.752;2023-08-08T06:47:50;100824.38;;;17.13;100.00
38812;BME280;24553;51.640;-0.752;2023-08-08T06:50:15;100828.38;;;17.22;100.00
38812;BME280;24553;51.640;-0.752;2023-08-08T06:52:40;100832.34;;;17.20;100.00
38812;BME280;24553;51.640;-0.752;2023-08-08T06:55:06;100828.53;;;17.28;100.00
38812;BME280;24553;51.640;-0.752;2023-08-08T06:57:33;100832.50;;;17.37;100.00
38812;BME280;24553;51.640;-0.752;2023-08-08T06:59:59;100824.88;;;17.52;100.00
38812;BME280;24553;51.640;-0.752;2023-08-08T07:02:24;100818.16;;;17.61;100.00
38812;BME280;24553;51.640;-0.752;2023-08-08T07:04:49;100820.16;;;17.66;100.00
38812;BME280;24553;51.640;-0.752;2023-08-08T07:07:15;100831.44;;;17.56;100.00
38812;BME280;24553;51.640;-0.752;2023-08-08T07:09:40;100826.88;;;17.57;100.00
38812;BME280;24553;51.640;-0.752;2023-08-08T07:12:07;100822.63;;;17.37;100.00
38812;BME280;24553;51.640;-0.752;2023-08-08T07:14:32;100821.34;;;17.40;100.00
38812;BME280;24553;51.640;-0.752;2023-08-08T07:16:58;100821.50;;;17.57;100.00
38812;BME280;24553;51.640;-0.752;2023-08-08T07:19:23;100817.59;;;17.71;100.00
38812;BME280;24553;51.640;-0.752;2023-08-08T07:21:49;100828.50;;;17.88;100.00
38812;BME280;24553;51.640;-0.752;2023-08-08T07:24:14;100815.91;;;18.00;100.00
38812;BME280;24553;51.640;-0.752;2023-08-08T07:26:39;100827.00;;;18.16;100.00
38812;BME280;24553;51.640;-0.752;2023-08-08T07:29:05;100823.75;;;18.25;100.00
38812;BME280;24553;51.640;-0.752;2023-08-08T07:31:33;100825.84;;;18.23;100.00
38812;BME280;24553;51.640;-0.752;2023-08-08T07:33:58;100819.31;;;18.07;100.00
38812;BME280;24553;51.640;-0.752;2023-08-08T07:36:23;100817.31;;;18.15;100.00
38812;BME280;24553;51.640;-0.752;2023-08-08T07:38:49;100823.97;;;18.24;100.00
38812;BME280;24553;51.640;-0.752;2023-08-08T07:41:14;100823.38;;;18.22;100.00
38812;BME280;24553;51.640;-0.752;2023-08-08T07:43:40;100820.97;;;18.20;100.00
38812;BME280;24553;51.640;-0.752;2023-08-08T07:46:05;100823.28;;;18.28;100.00
38812;BME280;24553;51.640;-0.752;2023-08-08T07:48:30;100806.47;;;18.45;100.00
38812;BME280;24553;51.640;-0.752;2023-08-08T07:50:56;100803.19;;;18.55;100.00
38812;BME280;24553;51.640;-0.752;2023-08-08T07:53:21;100814.16;;;18.65;100.00
38812;BME280;24553;51.640;-0.752;2023-08-08T07:55:46;100805.50;;;18.74;100.00
38812;BME280;24553;51.640;-0.752;2023-08-08T07:58:12;100806.34;;;18.75;100.00
38812;BME280;24553;51.640;-0.752;2023-08-08T08:00:37;100812.59;;;18.69;100.00
38812;BME280;24553;51.640;-0.752;2023-08-08T08:03:03;100814.00;;;18.71;100.00
38812;BME280;24553;51.640;-0.752;2023-08-08T08:05:29;100813.78;;;18.73;100.00
38812;BME280;24553;51.640;-0.752;2023-08-08T08:07:54;100806.66;;;18.79;100.00
38812;BME280;24553;51.640;-0.752;2023-08-08T08:10:20;100804.78;;;18.79;100.00
38812;BME280;24553;51.640;-0.752;2023-08-08T08:12:45;100802.88;;;18.91;100.00
38812;BME280;24553;51.640;-0.752;2023-08-08T08:15:11;100804.63;;;18.98;100.00
38812;BME280;24553;51.640;-0.752;2023-08-08T08:17:36;100801.47;;;19.01;100.00
38812;BME280;24553;51.640;-0.752;2023-08-08T08:20:01;100801.56;;;19.06;100.00
38812;BME280;24553;51.640;-0.752;2023-08-08T08:22:31;100815.72;;;19.01;100.00
38812;BME280;24553;51.640;-0.752;2023-08-08T08:24:57;100804.63;;;18.98;100.00
38812;BME280;24553;51.640;-0.752;2023-08-08T08:27:22;100801.16;;;18.85;100.00
38812;BME280;24553;51.640;-0.752;2023-08-08T08:29:48;100803.47;;;18.93;100.00
38812;BME280;24553;51.640;-0.752;2023-08-08T08:32:13;100810.66;;;19.05;100.00
38812;BME280;24553;51.640;-0.752;2023-08-08T08:34:38;100818.63;;;19.00;100.00
38812;BME280;24553;51.640;-0.752;2023-08-08T08:37:04;100816.22;;;18.86;100.00
38812;BME280;24553;51.640;-0.752;2023-08-08T08:39:29;100815.44;;;18.62;100.00
38812;BME280;24553;51.640;-0.752;2023-08-08T08:41:58;100815.22;;;18.52;100.00
38812;BME280;24553;51.640;-0.752;2023-08-08T08:44:27;100817.09;;;18.51;100.00
38812;BME280;24553;51.640;-0.752;2023-08-08T08:46:55;100817.41;;;18.55;100.00
38812;BME280;24553;51.640;-0.752;2023-08-08T08:49:23;100817.31;;;18.62;100.00
38812;BME280;24553;51.640;-0.752;2023-08-08T08:51:49;100816.94;;;18.82;100.00
38812;BME280;24553;51.640;-0.752;2023-08-08T08:54:15;100814.34;;;18.87;100.00
38812;BME280;24553;51.640;-0.752;2023-08-08T08:56:41;100807.69;;;18.89;100.00
38812;BME280;24553;51.640;-0.752;2023-08-08T08:59:07;100807.22;;;18.92;100.00
38812;BME280;24553;51.640;-0.752;2023-08-08T09:01:32;100807.25;;;18.81;100.00
38812;BME280;24553;51.640;-0.752;2023-08-08T09:03:58;100812.31;;;18.53;100.00
38812;BME280;24553;51.640;-0.752;2023-08-08T09:06:24;100809.91;;;18.69;100.00
38812;BME280;24553;51.640;-0.752;2023-08-08T09:08:50;100800.59;;;18.83;100.00
38812;BME280;24553;51.640;-0.752;2023-08-08T09:11:15;100800.31;;;18.96;100.00
38812;BME280;24553;51.640;-0.752;2023-08-08T09:13:40;100799.66;;;19.18;100.00
38812;BME280;24553;51.640;-0.752;2023-08-08T09:16:06;100795.19;;;19.24;100.00
38812;BME280;24553;51.640;-0.752;2023-08-08T09:18:33;100795.69;;;19.21;100.00
38812;BME280;24553;51.640;-0.752;2023-08-08T09:20:59;100803.75;;;19.21;100.00
38812;BME280;24553;51.640;-0.752;2023-08-08T09:23:25;100804.28;;;19.23;100.00
38812;BME280;24553;51.640;-0.752;2023-08-08T09:25:50;100807.13;;;19.16;100.00
38812;BME280;24553;51.640;-0.752;2023-08-08T09:28:16;100803.19;;;19.07;100.00
38812;BME280;24553;51.640;-0.752;2023-08-08T09:30:42;100801.75;;;18.87;100.00
38812;BME280;24553;51.640;-0.752;2023-08-08T09:33:08;100799.47;;;19.08;100.00
38812;BME280;24553;51.640;-0.752;2023-08-08T09:35:33;100804.56;;;19.21;100.00
38812;BME280;24553;51.640;-0.752;2023-08-08T09:37:59;100802.38;;;19.06;100.00
38812;BME280;24553;51.640;-0.752;2023-08-08T09:40:25;100804.25;;;19.06;100.00
38812;BME280;24553;51.640;-0.752;2023-08-08T09:42:53;100795.22;;;18.83;100.00
38812;BME280;24553;51.640;-0.752;2023-08-08T09:45:19;100795.78;;;18.73;100.00
38812;BME280;24553;51.640;-0.752;2023-08-08T09:47:45;100802.34;;;18.66;100.00
38812;BME280;24553;51.640;-0.752;2023-08-08T09:50:11;100790.72;;;18.48;100.00
38812;BME280;24553;51.640;-0.752;2023-08-08T09:52:37;100803.28;;;18.60;100.00
38812;BME280;24553;51.640;-0.752;2023-08-08T09:55:05;100793.09;;;18.85;100.00
38812;BME280;24553;51.640;-0.752;2023-08-08T09:57:32;100778.75;;;18.80;100.00
38812;BME280;24553;51.640;-0.752;2023-08-08T09:59:58;100773.63;;;18.78;100.00
38812;BME280;24553;51.640;-0.752;2023-08-08T10:02:24;100778.19;;;18.78;100.00
38812;BME280;24553;51.640;-0.752;2023-08-08T10:04:50;100769.16;;;18.84;100.00
38812;BME280;24553;51.640;-0.752;2023-08-08T10:07:16;100772.03;;;18.94;100.00
38812;BME280;24553;51.640;-0.752;2023-08-08T10:09:41;100779.63;;;18.97;100.00
38812;BME280;24553;51.640;-0.752;2023-08-08T10:12:07;100776.84;;;18.92;100.00
38812;BME280;24553;51.640;-0.752;2023-08-08T10:14:37;100768.66;;;18.99;100.00
38812;BME280;24553;51.640;-0.752;2023-08-08T10:17:04;100764.22;;;19.21;100.00
38812;BME280;24553;51.640;-0.752;2023-08-08T10:19:29;100755.69;;;19.41;100.00
38812;BME280;24553;51.640;-0.752;2023-08-08T10:22:00;100763.03;;;19.46;100.00
38812;BME280;24553;51.640;-0.752;2023-08-08T10:24:34;100763.47;;;19.26;100.00
38812;BME280;24553;51.640;-0.752;2023-08-08T10:27:01;100760.34;;;19.29;100.00
38812;BME280;24553;51.640;-0.752;2023-08-08T10:29:27;100757.00;;;19.38;100.00
38812;BME280;24553;51.640;-0.752;2023-08-08T10:32:04;100759.69;;;19.38;100.00
38812;BME280;24553;51.640;-0.752;2023-08-08T10:34:41;100752.69;;;19.37;100.00
38812;BME280;24553;51.640;-0.752;2023-08-08T10:37:17;100752.59;;;19.32;100.00
38812;BME280;24553;51.640;-0.752;2023-08-08T10:40:04;100750.91;;;19.60;100.00
38812;BME280;24553;51.640;-0.752;2023-08-08T10:42:41;100748.22;;;19.60;100.00
38812;BME280;24553;51.640;-0.752;2023-08-08T10:45:10;100743.16;;;19.64;100.00
38812;BME280;24553;51.640;-0.752;2023-08-08T10:47:37;100727.41;;;19.67;100.00
38812;BME280;24553;51.640;-0.752;2023-08-08T10:50:06;100734.72;;;19.72;100.00
38812;BME280;24553;51.640;-0.752;2023-08-08T10:52:33;100744.41;;;19.73;100.00
38812;BME280;24553;51.640;-0.752;2023-08-08T10:55:03;100729.16;;;19.78;100.00
38812;BME280;24553;51.640;-0.752;2023-08-08T10:57:30;100736.59;;;19.88;100.00
38812;BME280;24553;51.640;-0.752;2023-08-08T10:59:55;100730.63;;;19.86;100.00
38812;BME280;24553;51.640;-0.752;2023-08-08T11:02:20;100724.50;;;19.91;100.00
38812;BME280;24553;51.640;-0.752;2023-08-08T11:04:48;100736.25;;;20.01;100.00
38812;BME280;24553;51.640;-0.752;2023-08-08T11:07:14;100733.19;;;20.15;100.00
38812;BME280;24553;51.640;-0.752;2023-08-08T11:09:42;100728.69;;;20.20;100.00
38812;BME280;24553;51.640;-0.752;2023-08-08T11:12:14;100724.59;;;20.18;100.00
38812;BME280;24553;51.640;-0.752;2023-08-08T11:14:40;100723.91;;;20.05;100.00
38812;BME280;24553;51.640;-0.752;2023-08-08T11:17:05;100720.00;;;19.96;100.00
38812;BME280;24553;51.640;-0.752;2023-08-08T11:19:30;100714.44;;;20.03;100.00
38812;BME280;24553;51.640;-0.752;2023-08-08T11:21:57;100705.41;;;20.09;100.00
38812;BME280;24553;51.640;-0.752;2023-08-08T11:24:22;100707.50;;;20.07;100.00
38812;BME280;24553;51.640;-0.752;2023-08-08T11:26:47;100709.19;;;20.13;100.00
38812;BME280;24553;51.640;-0.752;2023-08-08T11:29:13;100699.63;;;20.22;100.00
38812;BME280;24553;51.640;-0.752;2023-08-08T11:31:38;100714.41;;;20.42;100.00
38812;BME280;24553;51.640;-0.752;2023-08-08T11:34:04;100709.59;;;20.44;100.00
38812;BME280;24553;51.640;-0.752;2023-08-08T11:36:31;100710.03;;;20.36;100.00
38812;BME280;24553;51.640;-0.752;2023-08-08T11:39:00;100714.09;;;20.38;100.00
38812;BME280;24553;51.640;-0.752;2023-08-08T11:41:28;100711.41;;;20.38;100.00
38812;BME280;24553;51.640;-0.752;2023-08-08T11:43:55;100703.09;;;20.40;100.00
38812;BME280;24553;51.640;-0.752;2023-08-08T11:46:23;100700.69;;;20.60;100.00
38812;BME280;24553;51.640;-0.752;2023-08-08T11:48:49;100702.50;;;20.82;100.00
38812;BME280;24553;51.640;-0.752;2023-08-08T11:51:15;100692.41;;;20.94;100.00
38812;BME280;24553;51.640;-0.752;2023-08-08T11:53:50;100686.56;;;21.02;100.00
38812;BME280;24553;51.640;-0.752;2023-08-08T11:56:17;100685.38;;;20.93;100.00
38812;BME280;24553;51.640;-0.752;2023-08-08T11:58:43;100679.22;;;20.98;100.00
38812;BME280;24553;51.640;-0.752;2023-08-08T12:01:09;100671.94;;;20.98;100.00
38812;BME280;24553;51.640;-0.752;2023-08-08T12:03:35;100668.28;;;21.09;100.00
38812;BME280;24553;51.640;-0.752;2023-08-08T12:06:14;100670.66;;;21.06;100.00
38812;BME280;24553;51.640;-0.752;2023-08-08T12:08:44;100669.38;;;21.13;100.00
38812;BME280;24553;51.640;-0.752;2023-08-08T12:11:11;100666.59;;;21.03;100.00
38812;BME280;24553;51.640;-0.752;2023-08-08T12:13:38;100661.69;;;20.95;100.00
38812;BME280;24553;51.640;-0.752;2023-08-08T12:16:06;100659.44;;;20.87;100.00
38812;BME280;24553;51.640;-0.752;2023-08-08T12:18:32;100669.53;;;20.97;100.00
38812;BME280;24553;51.640;-0.752;2023-08-08T12:20:57;100668.34;;;21.15;100.00
38812;BME280;24553;51.640;-0.752;2023-08-08T12:23:23;100662.22;;;21.29;100.00
38812;BME280;24553;51.640;-0.752;2023-08-08T12:25:48;100666.84;;;21.34;100.00
38812;BME280;24553;51.640;-0.752;2023-08-08T12:28:13;100662.94;;;21.15;100.00